Time;durP1;ratioP1;P1;durP2;ratioP2;P2;SDS_P1;SDS_P2;PMS_P1;PMS_P2;Temp;Humidity;BMP_temperature;BMP_pressure;BME280_temperature;BME280_humidity;BME280_pressure;Samples;Min_cycle;Max_cycle;Signal;HPM_P1;HPM_P2
2023/01/04 00:00:25;;;;;;;25.63;15.52;;;;;;;;;;5112831;28;20504;-81
2023/01/04 00:02:51;;;;;;;23.38;15.50;;;;;;;;;;5124710;28;20027;-82
2023/01/04 00:05:17;;;;;;;26.48;16.10;;;;;;;;;;5124767;28;20047;-82
2023/01/04 00:07:43;;;;;;;27.30;16.20;;;;;;;;;;5116284;28;20484;-81
2023/01/04 00:10:09;;;;;;;24.20;15.85;;;;;;;;;;5109093;28;20053;-82
2023/01/04 00:12:35;;;;;;;23.63;15.35;;;;;;;;;;5106707;28;20028;-81
2023/01/04 00:15:01;;;;;;;24.58;14.90;;;;;;;;;;5106265;28;20031;-81
2023/01/04 00:17:27;;;;;;;25.95;13.88;;;;;;;;;;5117532;28;20016;-81
2023/01/04 00:19:53;;;;;;;23.33;14.48;;;;;;;;;;5108648;28;20046;-81
2023/01/04 00:22:19;;;;;;;24.98;15.95;;;;;;;;;;5127242;28;20024;-81
2023/01/04 00:24:45;;;;;;;24.45;16.48;;;;;;;;;;5125907;28;20088;-81
2023/01/04 00:27:11;;;;;;;24.77;15.85;;;;;;;;;;5119351;27;20031;-81
2023/01/04 00:29:37;;;;;;;25.00;16.35;;;;;;;;;;5104830;28;20016;-81
2023/01/04 00:32:04;;;;;;;26.80;15.48;;;;;;;;;;5110439;27;20031;-81
2023/01/04 00:34:30;;;;;;;24.27;15.13;;;;;;;;;;5105197;28;20546;-81
2023/01/04 00:36:56;;;;;;;28.25;15.90;;;;;;;;;;5114978;28;20518;-81
2023/01/04 00:39:22;;;;;;;26.77;15.30;;;;;;;;;;5120819;28;20036;-81
2023/01/04 00:41:52;;;;;;;29.00;16.45;;;;;;;;;;5120845;28;20035;-81
2023/01/04 00:44:20;;;;;;;24.55;14.55;;;;;;;;;;5125755;28;20055;-81
2023/01/04 00:46:46;;;;;;;29.88;16.05;;;;;;;;;;5119160;28;20028;-81
2023/01/04 00:49:12;;;;;;;27.27;15.68;;;;;;;;;;5106717;28;20034;-81
2023/01/04 00:51:40;;;;;;;23.83;15.73;;;;;;;;;;5116511;28;20028;-81
2023/01/04 00:54:07;;;;;;;29.75;16.63;;;;;;;;;;5125335;28;20020;-81
2023/01/04 00:56:33;;;;;;;31.83;16.98;;;;;;;;;;5116780;28;20043;-81
2023/01/04 00:59:00;;;;;;;33.10;18.60;;;;;;;;;;5116305;28;20032;-80
2023/01/04 01:01:27;;;;;;;32.00;17.67;;;;;;;;;;5122642;28;20031;-81
2023/01/04 01:03:54;;;;;;;27.80;17.13;;;;;;;;;;5128977;28;20045;-81
2023/01/04 01:06:20;;;;;;;39.17;19.58;;;;;;;;;;5116028;28;20560;-81
2023/01/04 01:08:46;;;;;;;32.05;18.38;;;;;;;;;;5122159;28;20043;-81
2023/01/04 01:11:12;;;;;;;37.08;19.80;;;;;;;;;;5124183;28;20073;-81
2023/01/04 01:13:38;;;;;;;34.60;19.02;;;;;;;;;;5109432;28;20095;-81
2023/01/04 01:16:06;;;;;;;31.08;19.27;;;;;;;;;;5114518;28;20063;-80
2023/01/04 01:18:33;;;;;;;38.40;21.00;;;;;;;;;;5119408;28;20028;-81
2023/01/04 01:20:59;;;;;;;37.80;20.50;;;;;;;;;;5107614;28;20031;-81
2023/01/04 01:23:25;;;;;;;38.33;20.00;;;;;;;;;;5106171;28;20048;-81
2023/01/04 01:25:51;;;;;;;33.20;19.42;;;;;;;;;;5116955;28;20024;-81
2023/01/04 01:28:17;;;;;;;32.13;18.50;;;;;;;;;;5116457;28;20513;-80
2023/01/04 01:30:43;;;;;;;32.67;20.05;;;;;;;;;;5114897;28;20050;-81
2023/01/04 01:33:09;;;;;;;37.00;19.92;;;;;;;;;;5112714;28;20012;-81
2023/01/04 01:35:35;;;;;;;29.42;19.77;;;;;;;;;;5119057;28;20394;-81
2023/01/04 01:38:01;;;;;;;31.10;20.00;;;;;;;;;;5124985;28;20105;-80
2023/01/04 01:40:28;;;;;;;31.95;20.55;;;;;;;;;;5108780;28;20032;-80
2023/01/04 01:42:58;;;;;;;31.48;18.42;;;;;;;;;;5122920;28;20065;-81
2023/01/04 01:45:30;;;;;;;29.98;18.95;;;;;;;;;;5108196;28;20020;-81
2023/01/04 01:48:00;;;;;;;30.42;19.00;;;;;;;;;;5112951;27;20040;-81
2023/01/04 01:50:29;;;;;;;36.10;19.80;;;;;;;;;;5121930;28;20157;-81
2023/01/04 01:52:57;;;;;;;34.58;20.40;;;;;;;;;;5104793;28;20023;-81
2023/01/04 01:55:23;;;;;;;37.08;20.10;;;;;;;;;;5106627;28;20042;-81
2023/01/04 01:57:50;;;;;;;35.13;19.95;;;;;;;;;;5120643;28;20035;-79
2023/01/04 02:00:16;;;;;;;34.10;20.17;;;;;;;;;;5124404;28;20027;-80
2023/01/04 02:02:51;;;;;;;33.08;19.10;;;;;;;;;;5124590;28;20114;-81
2023/01/04 02:05:19;;;;;;;35.17;18.45;;;;;;;;;;5122104;28;20057;-81
2023/01/04 02:07:45;;;;;;;29.50;18.30;;;;;;;;;;5107341;28;20088;-81
2023/01/04 02:10:11;;;;;;;30.30;18.02;;;;;;;;;;5109626;28;20032;-81
2023/01/04 02:12:37;;;;;;;31.25;18.27;;;;;;;;;;5103916;28;20039;-81
2023/01/04 02:15:03;;;;;;;32.65;17.30;;;;;;;;;;5107718;28;20416;-81
2023/01/04 02:17:52;;;;;;;33.30;17.45;;;;;;;;;;5123929;28;20031;-81
2023/01/04 02:20:21;;;;;;;33.00;18.98;;;;;;;;;;5123776;28;20590;-81
2023/01/04 02:22:47;;;;;;;30.08;18.52;;;;;;;;;;5111986;28;20020;-81
2023/01/04 02:25:32;;;;;;;33.22;19.13;;;;;;;;;;5110888;28;20017;-81
2023/01/04 02:28:10;;;;;;;33.92;18.88;;;;;;;;;;5104958;28;20024;-81
2023/01/04 02:30:55;;;;;;;30.45;18.83;;;;;;;;;;5115597;28;20502;-81
2023/01/04 02:33:43;;;;;;;32.60;18.23;;;;;;;;;;5125671;28;20031;-80
2023/01/04 02:36:19;;;;;;;28.75;17.85;;;;;;;;;;5112245;28;20024;-81
2023/01/04 02:39:04;;;;;;;30.35;17.92;;;;;;;;;;5108262;28;20029;-81
2023/01/04 02:41:42;;;;;;;29.88;18.10;;;;;;;;;;5122938;28;20039;-81
2023/01/04 02:47:06;;;;;;;30.00;16.75;;;;;;;;;;5113253;28;20034;-81
2023/01/04 02:52:17;;;;;;;30.40;17.35;;;;;;;;;;5108895;28;20070;-81
2023/01/04 02:54:44;;;;;;;28.27;16.52;;;;;;;;;;5108884;28;20012;-80
2023/01/04 02:57:19;;;;;;;32.53;17.02;;;;;;;;;;5117593;28;20024;-81
2023/01/04 02:59:52;;;;;;;29.55;17.23;;;;;;;;;;5121519;28;20134;-80
2023/01/04 03:08:00;;;;;;;28.27;15.73;;;;;;;;;;5111103;28;20614;-81
2023/01/04 03:10:47;;;;;;;29.02;15.50;;;;;;;;;;5110661;28;20095;-80
2023/01/04 03:13:37;;;;;;;25.58;15.55;;;;;;;;;;5108118;28;20087;-80
2023/01/04 03:16:12;;;;;;;27.65;16.05;;;;;;;;;;5113031;28;20081;-80
2023/01/04 03:18:44;;;;;;;26.55;15.45;;;;;;;;;;5112790;28;20035;-81
2023/01/04 03:21:11;;;;;;;24.85;15.10;;;;;;;;;;5126191;28;20020;-80
2023/01/04 03:49:26;;;;;;;27.75;16.25;;;;;;;;;;5120245;28;20096;-80
2023/01/04 03:51:53;;;;;;;23.10;13.88;;;;;;;;;;5125120;28;20386;-80
2023/01/04 03:54:28;;;;;;;21.15;14.00;;;;;;;;;;5110787;27;20021;-81
2023/01/04 03:56:54;;;;;;;27.10;14.75;;;;;;;;;;5113985;28;20043;-80
2023/01/04 03:59:22;;;;;;;26.17;15.73;;;;;;;;;;5114926;28;20030;-81
2023/01/04 04:01:48;;;;;;;23.77;15.05;;;;;;;;;;5126359;28;20031;-80
2023/01/04 04:09:44;;;;;;;27.65;15.02;;;;;;;;;;5107906;28;20043;-80
2023/01/04 04:12:10;;;;;;;26.02;15.50;;;;;;;;;;5119432;28;20456;-81
2023/01/04 04:14:36;;;;;;;25.33;14.70;;;;;;;;;;5119678;28;20024;-80
2023/01/04 04:17:02;;;;;;;28.27;15.45;;;;;;;;;;5114912;28;20042;-79
2023/01/04 04:19:28;;;;;;;25.45;15.82;;;;;;;;;;5123019;28;20085;-80
2023/01/04 04:21:54;;;;;;;26.75;15.32;;;;;;;;;;5109236;28;20036;-81
2023/01/04 04:24:23;;;;;;;26.35;14.73;;;;;;;;;;5118983;27;20031;-80
2023/01/04 04:26:49;;;;;;;25.63;14.48;;;;;;;;;;5122917;28;20031;-80
2023/01/04 04:29:15;;;;;;;26.30;13.95;;;;;;;;;;5115110;28;20024;-80
2023/01/04 04:31:41;;;;;;;28.40;16.90;;;;;;;;;;5121292;27;20019;-80
2023/01/04 04:34:07;;;;;;;25.40;15.30;;;;;;;;;;5125742;28;20024;-81
2023/01/04 04:36:33;;;;;;;30.25;16.20;;;;;;;;;;5118804;28;20039;-80
2023/01/04 04:38:59;;;;;;;29.48;16.33;;;;;;;;;;5109577;28;20028;-81
2023/01/04 04:41:37;;;;;;;31.50;16.13;;;;;;;;;;5117990;28;20031;-80
2023/01/04 04:44:03;;;;;;;26.95;16.23;;;;;;;;;;5122022;28;20043;-80
2023/01/04 04:46:30;;;;;;;28.90;16.48;;;;;;;;;;5124662;28;20020;-80
2023/01/04 04:48:56;;;;;;;27.42;14.95;;;;;;;;;;5114197;28;20025;-81
2023/01/04 04:51:22;;;;;;;34.97;15.63;;;;;;;;;;5117393;28;20024;-80
2023/01/04 04:53:48;;;;;;;29.33;15.73;;;;;;;;;;5109178;28;20030;-80
2023/01/04 04:56:14;;;;;;;41.08;15.13;;;;;;;;;;5119209;28;20023;-79
2023/01/04 04:58:40;;;;;;;37.88;16.80;;;;;;;;;;5110389;28;20028;-80
2023/01/04 05:01:06;;;;;;;36.15;16.60;;;;;;;;;;5111211;28;20039;-80
2023/01/04 05:03:33;;;;;;;29.77;16.30;;;;;;;;;;5128619;28;20032;-79
2023/01/04 05:05:59;;;;;;;31.70;15.98;;;;;;;;;;5109516;28;20044;-80
2023/01/04 05:08:25;;;;;;;36.45;16.70;;;;;;;;;;5104878;28;20431;-79
2023/01/04 05:10:51;;;;;;;26.15;14.45;;;;;;;;;;5106109;28;20024;-80
2023/01/04 05:13:17;;;;;;;27.33;16.17;;;;;;;;;;5115038;28;20024;-80
2023/01/04 05:15:45;;;;;;;32.03;17.40;;;;;;;;;;5111253;28;20036;-80
2023/01/04 05:18:12;;;;;;;32.55;16.80;;;;;;;;;;5105112;28;20028;-81
2023/01/04 05:20:38;;;;;;;32.30;15.95;;;;;;;;;;5108266;28;20032;-80
2023/01/04 05:23:05;;;;;;;37.85;18.70;;;;;;;;;;5124915;28;20027;-80
2023/01/04 05:25:31;;;;;;;32.97;16.98;;;;;;;;;;5122589;28;20038;-80
2023/01/04 05:27:57;;;;;;;35.15;16.88;;;;;;;;;;5122886;28;20057;-80
2023/01/04 05:33:09;;;;;;;39.08;16.23;;;;;;;;;;5123455;28;20095;-80
2023/01/04 05:35:35;;;;;;;28.02;15.63;;;;;;;;;;5124118;28;20032;-80
2023/01/04 05:38:01;;;;;;;28.40;17.27;;;;;;;;;;5114300;28;20027;-80
2023/01/04 05:40:28;;;;;;;33.33;18.23;;;;;;;;;;5104697;28;20218;-81
2023/01/04 05:42:54;;;;;;;32.50;16.75;;;;;;;;;;5113666;28;20024;-80
2023/01/04 05:45:20;;;;;;;42.05;16.90;;;;;;;;;;5103503;28;20044;-80
2023/01/04 05:47:50;;;;;;;33.15;17.70;;;;;;;;;;5103601;28;20073;-79
2023/01/04 05:50:16;;;;;;;35.45;18.60;;;;;;;;;;5105190;28;20024;-80
2023/01/04 05:52:42;;;;;;;34.97;17.23;;;;;;;;;;5109529;27;20092;-80
2023/01/04 05:55:09;;;;;;;43.67;19.02;;;;;;;;;;5117925;28;20039;-79
2023/01/04 05:57:35;;;;;;;33.40;17.17;;;;;;;;;;5109271;28;20137;-81
2023/01/04 06:00:01;;;;;;;41.75;20.10;;;;;;;;;;5106560;28;20035;-80
2023/01/04 06:02:29;;;;;;;33.08;18.27;;;;;;;;;;5107489;28;20020;-80
2023/01/04 06:04:56;;;;;;;32.80;18.00;;;;;;;;;;5119702;28;20046;-79
2023/01/04 06:07:22;;;;;;;30.95;17.50;;;;;;;;;;5108626;28;20047;-80
2023/01/04 06:09:48;;;;;;;40.33;19.10;;;;;;;;;;5122300;28;20039;-80
2023/01/04 06:12:14;;;;;;;35.80;18.80;;;;;;;;;;5123499;28;20279;-80
2023/01/04 06:14:40;;;;;;;37.15;18.05;;;;;;;;;;5122997;28;20111;-80
2023/01/04 06:17:06;;;;;;;28.40;17.15;;;;;;;;;;5109274;28;20022;-80
2023/01/04 06:19:33;;;;;;;33.38;17.25;;;;;;;;;;5120782;28;20028;-80
2023/01/04 06:21:59;;;;;;;32.45;16.33;;;;;;;;;;5109282;28;20023;-80
2023/01/04 06:24:25;;;;;;;28.77;16.70;;;;;;;;;;5105176;28;20127;-80
2023/01/04 06:26:51;;;;;;;28.63;14.88;;;;;;;;;;5101792;28;20478;-81
2023/01/04 06:29:17;;;;;;;27.00;13.93;;;;;;;;;;5099592;28;20052;-81
2023/01/04 06:31:43;;;;;;;23.52;15.07;;;;;;;;;;5109895;28;20466;-81
2023/01/04 06:34:13;;;;;;;25.48;14.30;;;;;;;;;;5102075;28;20016;-80
2023/01/04 06:36:39;;;;;;;40.42;19.13;;;;;;;;;;5099264;28;20036;-80
2023/01/04 06:39:05;;;;;;;44.33;23.55;;;;;;;;;;5118960;28;20394;-80
2023/01/04 06:41:31;;;;;;;38.70;18.15;;;;;;;;;;5118656;28;20357;-80
2023/01/04 06:43:57;;;;;;;28.70;14.90;;;;;;;;;;5112807;28;20556;-80
2023/01/04 06:46:23;;;;;;;24.67;13.90;;;;;;;;;;5109109;28;20030;-80
2023/01/04 06:48:51;;;;;;;30.77;15.15;;;;;;;;;;5107084;28;20020;-79
2023/01/04 06:51:17;;;;;;;25.75;16.13;;;;;;;;;;5108347;28;20030;-80
2023/01/04 06:53:43;;;;;;;34.67;17.65;;;;;;;;;;5104319;28;20494;-80
2023/01/04 06:56:13;;;;;;;32.40;17.27;;;;;;;;;;5100795;28;20020;-81
2023/01/04 06:58:39;;;;;;;23.90;16.13;;;;;;;;;;5114589;28;20092;-78
2023/01/04 07:01:05;;;;;;;31.83;15.70;;;;;;;;;;5104863;28;20028;-80
2023/01/04 07:03:31;;;;;;;39.10;16.92;;;;;;;;;;5107646;28;20042;-80
2023/01/04 07:05:57;;;;;;;34.45;15.63;;;;;;;;;;5112589;28;20028;-80
2023/01/04 07:08:23;;;;;;;25.25;15.10;;;;;;;;;;5111874;28;20024;-80
2023/01/04 07:10:49;;;;;;;29.20;15.60;;;;;;;;;;5111407;28;20416;-80
2023/01/04 07:13:15;;;;;;;27.13;13.80;;;;;;;;;;5109652;28;20091;-80
2023/01/04 07:15:41;;;;;;;25.05;14.48;;;;;;;;;;5101497;28;20104;-80
2023/01/04 07:18:08;;;;;;;28.13;13.88;;;;;;;;;;5118247;28;20099;-80
2023/01/04 07:20:35;;;;;;;26.02;14.55;;;;;;;;;;5113306;28;20024;-80
2023/01/04 07:23:01;;;;;;;23.20;13.70;;;;;;;;;;5109988;28;20056;-81
2023/01/04 07:25:27;;;;;;;28.40;13.32;;;;;;;;;;5115788;28;20050;-79
2023/01/04 07:27:53;;;;;;;20.52;12.65;;;;;;;;;;5117232;28;20042;-80
2023/01/04 07:30:20;;;;;;;23.63;13.27;;;;;;;;;;5108147;28;20035;-80
2023/01/04 07:32:46;;;;;;;24.27;13.35;;;;;;;;;;5103401;28;20024;-79
2023/01/04 07:35:12;;;;;;;25.35;13.77;;;;;;;;;;5100627;28;20020;-80
2023/01/04 07:37:38;;;;;;;20.05;13.15;;;;;;;;;;5111229;28;20057;-81
2023/01/04 07:40:05;;;;;;;25.98;13.35;;;;;;;;;;5103057;27;20708;-81
2023/01/04 07:42:31;;;;;;;38.33;21.20;;;;;;;;;;5113672;28;20091;-80
2023/01/04 07:44:57;;;;;;;44.85;25.40;;;;;;;;;;5120231;28;20081;-80
2023/01/04 07:47:23;;;;;;;39.15;21.13;;;;;;;;;;5120340;28;20282;-80
2023/01/04 07:49:49;;;;;;;29.35;16.73;;;;;;;;;;5110290;28;20021;-79
2023/01/04 07:52:15;;;;;;;28.13;16.65;;;;;;;;;;5116470;28;20039;-80
2023/01/04 07:54:41;;;;;;;29.40;19.27;;;;;;;;;;5110512;28;20011;-81
2023/01/04 07:57:07;;;;;;;28.27;15.93;;;;;;;;;;5121993;28;20057;-81
2023/01/04 07:59:33;;;;;;;43.33;27.67;;;;;;;;;;5099161;28;20058;-80
2023/01/04 08:01:59;;;;;;;41.80;26.52;;;;;;;;;;5100115;28;20040;-80
2023/01/04 08:04:25;;;;;;;31.10;17.92;;;;;;;;;;5119021;28;20027;-80
2023/01/04 08:06:52;;;;;;;25.27;16.67;;;;;;;;;;5117748;28;20112;-80
2023/01/04 08:09:18;;;;;;;34.78;18.60;;;;;;;;;;5098625;28;20024;-81
2023/01/04 08:11:45;;;;;;;33.10;18.83;;;;;;;;;;5111240;28;20062;-80
2023/01/04 08:14:11;;;;;;;53.45;31.70;;;;;;;;;;5113836;28;20537;-81
2023/01/04 08:16:38;;;;;;;56.20;30.52;;;;;;;;;;5099689;28;20020;-79
2023/01/04 08:19:06;;;;;;;60.92;36.30;;;;;;;;;;5103776;28;20028;-79
2023/01/04 08:21:33;;;;;;;34.33;18.80;;;;;;;;;;5104887;28;20035;-78
2023/01/04 08:23:59;;;;;;;34.53;17.65;;;;;;;;;;5122063;28;20020;-79
2023/01/04 08:26:26;;;;;;;35.85;20.13;;;;;;;;;;5125759;28;20062;-79
2023/01/04 08:28:52;;;;;;;35.40;20.95;;;;;;;;;;5101860;28;20024;-79
2023/01/04 08:31:21;;;;;;;28.40;16.83;;;;;;;;;;5112082;28;20023;-79
2023/01/04 08:33:47;;;;;;;33.35;18.38;;;;;;;;;;5103412;28;20025;-80
2023/01/04 08:36:16;;;;;;;35.22;19.52;;;;;;;;;;5101449;28;20451;-79
2023/01/04 08:38:42;;;;;;;39.13;21.50;;;;;;;;;;5104508;28;20024;-80
2023/01/04 08:41:08;;;;;;;32.03;19.17;;;;;;;;;;5103125;28;20028;-80
2023/01/04 08:43:35;;;;;;;35.53;20.83;;;;;;;;;;5100642;28;20104;-80
2023/01/04 08:46:02;;;;;;;29.75;18.77;;;;;;;;;;5102864;28;20050;-80
2023/01/04 08:48:28;;;;;;;30.50;18.90;;;;;;;;;;5120071;28;20058;-80
2023/01/04 08:50:57;;;;;;;34.28;19.50;;;;;;;;;;5119417;28;20020;-80
2023/01/04 08:53:23;;;;;;;26.10;17.30;;;;;;;;;;5099802;28;20024;-79
2023/01/04 08:55:50;;;;;;;34.88;19.60;;;;;;;;;;5118421;28;20489;-78
2023/01/04 08:58:16;;;;;;;36.00;19.02;;;;;;;;;;5126780;28;20099;-79
2023/01/04 09:00:42;;;;;;;31.02;18.50;;;;;;;;;;5113666;28;20063;-80
2023/01/04 09:03:08;;;;;;;27.88;17.40;;;;;;;;;;5114603;28;20463;-78
2023/01/04 09:05:34;;;;;;;33.22;20.02;;;;;;;;;;5108097;28;20032;-79
2023/01/04 09:08:00;;;;;;;38.42;19.88;;;;;;;;;;5102154;28;20077;-79
2023/01/04 09:10:26;;;;;;;44.78;21.65;;;;;;;;;;5097813;28;20024;-79
2023/01/04 09:12:52;;;;;;;29.95;18.55;;;;;;;;;;5098915;28;20028;-80
2023/01/04 09:15:18;;;;;;;32.58;17.92;;;;;;;;;;5112352;27;20020;-79
2023/01/04 09:17:44;;;;;;;29.75;16.40;;;;;;;;;;5117470;28;20027;-78
2023/01/04 09:20:10;;;;;;;37.83;18.73;;;;;;;;;;5116519;28;20028;-79
2023/01/04 09:22:36;;;;;;;29.10;15.80;;;;;;;;;;5116538;28;20024;-79
2023/01/04 09:25:02;;;;;;;126.68;54.47;;;;;;;;;;5111793;28;20016;-79
2023/01/04 09:27:31;;;;;;;106.53;43.45;;;;;;;;;;5104383;28;20028;-79
2023/01/04 09:29:57;;;;;;;384.98;161.45;;;;;;;;;;5106694;28;20024;-79
2023/01/04 09:32:23;;;;;;;252.27;108.55;;;;;;;;;;5111128;28;20020;-79
2023/01/04 09:34:49;;;;;;;105.53;45.38;;;;;;;;;;5101721;28;20028;-79
2023/01/04 09:37:15;;;;;;;70.75;27.40;;;;;;;;;;5112112;28;20047;-80
2023/01/04 09:39:41;;;;;;;53.35;23.20;;;;;;;;;;5095684;28;20414;-78
2023/01/04 09:42:16;;;;;;;35.28;15.73;;;;;;;;;;5108538;27;20465;-77
2023/01/04 09:44:46;;;;;;;32.20;14.68;;;;;;;;;;5110887;28;21225;-80
2023/01/04 09:47:39;;;;;;;38.45;17.55;;;;;;;;;;5117851;27;20024;-79
2023/01/04 09:50:05;;;;;;;40.72;21.33;;;;;;;;;;5112025;27;20489;-79
2023/01/04 09:52:34;;;;;;;36.15;16.75;;;;;;;;;;5115013;27;20020;-79
2023/01/04 09:55:01;;;;;;;33.28;18.08;;;;;;;;;;5106829;27;20054;-78
2023/01/04 09:57:30;;;;;;;25.88;14.00;;;;;;;;;;5106903;27;20023;-79
2023/01/04 10:00:02;;;;;;;28.25;14.38;;;;;;;;;;5111679;28;20058;-79
2023/01/04 10:02:39;;;;;;;25.40;14.93;;;;;;;;;;5111683;28;20388;-79
2023/01/04 10:05:06;;;;;;;29.08;14.80;;;;;;;;;;5102483;28;20031;-79
2023/01/04 10:07:33;;;;;;;34.00;17.80;;;;;;;;;;5099112;28;20496;-78
2023/01/04 10:09:59;;;;;;;28.98;17.60;;;;;;;;;;5098585;28;20141;-79
2023/01/04 10:12:52;;;;;;;23.63;15.10;;;;;;;;;;5091863;28;20021;-77
2023/01/04 10:15:24;;;;;;;37.15;20.40;;;;;;;;;;5077538;28;20032;-77
2023/01/04 10:17:51;;;;;;;30.33;16.65;;;;;;;;;;5112116;28;20016;-79
2023/01/04 10:20:35;;;;;;;32.20;16.23;;;;;;;;;;5102993;28;20042;-79
2023/01/04 10:23:07;;;;;;;31.90;16.27;;;;;;;;;;5098261;28;20114;-79
2023/01/04 10:25:51;;;;;;;26.57;15.27;;;;;;;;;;5103315;28;20054;-79
2023/01/04 10:28:17;;;;;;;33.58;16.52;;;;;;;;;;5103730;28;20020;-79
2023/01/04 10:31:04;;;;;;;36.85;18.02;;;;;;;;;;5094372;28;20542;-79
2023/01/04 10:33:30;;;;;;;32.25;15.68;;;;;;;;;;5093482;28;20035;-79
2023/01/04 10:35:56;;;;;;;26.65;17.90;;;;;;;;;;5098870;28;20040;-78
2023/01/04 10:38:24;;;;;;;32.22;16.77;;;;;;;;;;5103613;28;20019;-77
2023/01/04 10:40:50;;;;;;;27.23;16.45;;;;;;;;;;5093564;28;20028;-78
2023/01/04 10:43:35;;;;;;;32.67;16.25;;;;;;;;;;5094179;28;20048;-77
2023/01/04 10:46:04;;;;;;;27.67;15.55;;;;;;;;;;5097902;28;20033;-77
2023/01/04 10:48:48;;;;;;;28.17;16.33;;;;;;;;;;5091329;28;20016;-79
2023/01/04 10:51:16;;;;;;;26.42;15.60;;;;;;;;;;5110306;28;20020;-79
2023/01/04 10:54:09;;;;;;;31.58;15.13;;;;;;;;;;5107242;28;20339;-78
2023/01/04 10:56:39;;;;;;;32.47;16.52;;;;;;;;;;5104447;28;20047;-80
2023/01/04 10:59:05;;;;;;;29.85;16.63;;;;;;;;;;5115439;28;20059;-78
2023/01/04 11:01:37;;;;;;;32.83;17.00;;;;;;;;;;5099882;28;20106;-79
2023/01/04 11:04:12;;;;;;;25.88;14.50;;;;;;;;;;5104495;27;20023;-79
2023/01/04 11:06:58;;;;;;;26.38;14.60;;;;;;;;;;5102497;28;20035;-79
2023/01/04 11:09:27;;;;;;;25.40;15.57;;;;;;;;;;5107392;28;20016;-78
2023/01/04 11:11:56;;;;;;;29.13;15.00;;;;;;;;;;5096484;28;20485;-77
2023/01/04 11:14:24;;;;;;;25.83;15.98;;;;;;;;;;5105528;28;20031;-80
2023/01/04 11:16:51;;;;;;;27.48;15.10;;;;;;;;;;5102853;28;20077;-78
2023/01/04 11:19:17;;;;;;;24.88;15.13;;;;;;;;;;5118214;28;20023;-77
2023/01/04 11:21:55;;;;;;;26.30;16.08;;;;;;;;;;5117808;28;20027;-79
2023/01/04 11:24:22;;;;;;;26.85;14.68;;;;;;;;;;5113913;28;20566;-79
2023/01/04 11:26:48;;;;;;;28.45;16.52;;;;;;;;;;5103153;28;20187;-79
2023/01/04 11:29:33;;;;;;;40.10;16.50;;;;;;;;;;5099511;28;20027;-79
2023/01/04 11:32:02;;;;;;;31.17;16.58;;;;;;;;;;5094875;28;20016;-80
2023/01/04 11:34:44;;;;;;;26.92;15.95;;;;;;;;;;5098045;28;20016;-80
2023/01/04 11:37:28;;;;;;;30.90;17.90;;;;;;;;;;5111600;27;20031;-79
2023/01/04 11:40:11;;;;;;;42.15;19.42;;;;;;;;;;5094906;28;20510;-79
2023/01/04 11:42:37;;;;;;;31.90;16.40;;;;;;;;;;5102563;28;20363;-78
2023/01/04 11:45:03;;;;;;;28.15;17.63;;;;;;;;;;5095818;28;20311;-80
2023/01/04 11:47:29;;;;;;;33.88;17.52;;;;;;;;;;5108977;27;20035;-82
2023/01/04 11:49:56;;;;;;;38.03;18.10;;;;;;;;;;5105719;27;20299;-77
2023/01/04 11:52:36;;;;;;;32.40;19.92;;;;;;;;;;5097699;28;20393;-77
2023/01/04 11:55:22;;;;;;;27.58;16.75;;;;;;;;;;5103693;28;20528;-79
2023/01/04 11:58:04;;;;;;;33.85;18.52;;;;;;;;;;5112493;28;20504;-79
2023/01/04 12:00:30;;;;;;;30.83;18.57;;;;;;;;;;5100613;28;20028;-80
2023/01/04 12:03:10;;;;;;;38.78;18.88;;;;;;;;;;5093615;28;20759;-80
2023/01/04 12:05:36;;;;;;;30.27;18.65;;;;;;;;;;5107687;28;20031;-79
2023/01/04 12:08:03;;;;;;;27.52;17.50;;;;;;;;;;5105735;28;20037;-79
2023/01/04 12:10:29;;;;;;;30.48;16.95;;;;;;;;;;5107329;28;20038;-78
2023/01/04 12:12:56;;;;;;;31.58;18.90;;;;;;;;;;5093638;28;20024;-80
2023/01/04 12:15:34;;;;;;;30.80;16.73;;;;;;;;;;5103872;28;20027;-79
2023/01/04 12:18:05;;;;;;;39.67;24.25;;;;;;;;;;5100700;28;20118;-78
2023/01/04 12:20:31;;;;;;;31.05;19.02;;;;;;;;;;5098253;28;20094;-77
2023/01/04 12:22:57;;;;;;;32.33;17.70;;;;;;;;;;5092952;28;20036;-79
2023/01/04 12:25:23;;;;;;;28.65;17.38;;;;;;;;;;5103614;28;20397;-78
2023/01/04 12:27:50;;;;;;;27.63;17.02;;;;;;;;;;5110850;28;20035;-82
2023/01/04 12:30:33;;;;;;;28.40;16.48;;;;;;;;;;5111545;28;20096;-79
2023/01/04 12:32:59;;;;;;;29.23;17.63;;;;;;;;;;5114197;28;20027;-80
2023/01/04 12:35:44;;;;;;;28.10;17.73;;;;;;;;;;5111010;28;20027;-79
2023/01/04 12:38:10;;;;;;;27.02;14.98;;;;;;;;;;5113880;28;20108;-79
2023/01/04 12:40:45;;;;;;;23.55;15.05;;;;;;;;;;5115358;27;20034;-79
2023/01/04 12:43:14;;;;;;;26.45;15.70;;;;;;;;;;5111997;28;20068;-84
2023/01/04 12:45:40;;;;;;;24.38;14.30;;;;;;;;;;5100859;28;20122;-79
2023/01/04 12:51:18;;;;;;;26.70;14.95;;;;;;;;;;5102016;28;20026;-78
2023/01/04 12:53:53;;;;;;;29.17;15.43;;;;;;;;;;5110618;28;20085;-80
2023/01/04 12:56:19;;;;;;;23.58;14.15;;;;;;;;;;5112421;28;20024;-80
2023/01/04 12:59:04;;;;;;;22.98;13.60;;;;;;;;;;5104950;28;20424;-81
2023/01/04 13:01:30;;;;;;;20.73;12.73;;;;;;;;;;5093180;28;20530;-78
2023/01/04 13:03:58;;;;;;;19.88;11.40;;;;;;;;;;5096886;27;20035;-80
2023/01/04 13:06:27;;;;;;;18.85;12.43;;;;;;;;;;5111505;28;20028;-79
2023/01/04 13:08:54;;;;;;;22.40;14.50;;;;;;;;;;5113216;28;20019;-80
2023/01/04 13:11:32;;;;;;;22.98;14.55;;;;;;;;;;5113701;28;20020;-79
2023/01/04 13:14:07;;;;;;;25.80;16.10;;;;;;;;;;5096901;28;20043;-79
2023/01/04 13:16:39;;;;;;;23.48;14.27;;;;;;;;;;5093508;28;20020;-81
2023/01/04 13:19:25;;;;;;;21.08;14.35;;;;;;;;;;5093814;28;20039;-81
2023/01/04 13:21:52;;;;;;;21.88;14.57;;;;;;;;;;5092072;28;20063;-80
2023/01/04 13:24:22;;;;;;;21.58;13.68;;;;;;;;;;5106818;28;20099;-81
2023/01/04 13:26:50;;;;;;;22.02;14.35;;;;;;;;;;5094943;28;20020;-81
2023/01/04 13:29:19;;;;;;;23.27;16.17;;;;;;;;;;5092870;28;20043;-83
2023/01/04 13:31:50;;;;;;;20.50;13.70;;;;;;;;;;5093404;28;20494;-81
2023/01/04 13:34:36;;;;;;;19.52;12.80;;;;;;;;;;5097879;28;20024;-81
2023/01/04 13:37:25;;;;;;;17.23;12.57;;;;;;;;;;5106769;28;20028;-81
2023/01/04 13:39:52;;;;;;;17.60;12.48;;;;;;;;;;5104717;28;20176;-81
2023/01/04 13:42:26;;;;;;;18.67;12.75;;;;;;;;;;5099943;28;20386;-82
2023/01/04 13:44:52;;;;;;;19.40;13.10;;;;;;;;;;5093464;28;20044;-80
2023/01/04 13:47:18;;;;;;;20.10;13.80;;;;;;;;;;5097991;28;20690;-81
2023/01/04 13:49:44;;;;;;;20.00;13.52;;;;;;;;;;5093849;28;20028;-80
2023/01/04 13:52:29;;;;;;;19.90;13.15;;;;;;;;;;5093405;28;20028;-79
2023/01/04 13:55:14;;;;;;;19.38;13.75;;;;;;;;;;5092408;28;20035;-81
2023/01/04 13:57:51;;;;;;;20.98;13.60;;;;;;;;;;5102009;28;20055;-80
2023/01/04 14:00:17;;;;;;;20.13;14.15;;;;;;;;;;5102517;28;20045;-81
2023/01/04 14:02:43;;;;;;;19.45;12.60;;;;;;;;;;5098082;28;20028;-81
2023/01/04 14:05:15;;;;;;;19.88;13.95;;;;;;;;;;5106034;28;20423;-80
2023/01/04 14:07:42;;;;;;;21.08;13.77;;;;;;;;;;5097027;28;20489;-81
2023/01/04 14:10:18;;;;;;;19.52;13.73;;;;;;;;;;5110138;28;20840;-81
2023/01/04 14:12:46;;;;;;;21.70;14.40;;;;;;;;;;5109226;28;20020;-79
2023/01/04 14:15:22;;;;;;;24.70;15.18;;;;;;;;;;5111027;28;20458;-80
2023/01/04 14:17:51;;;;;;;22.17;14.43;;;;;;;;;;5098935;28;20027;-79
2023/01/04 14:20:23;;;;;;;22.02;14.60;;;;;;;;;;5093469;28;20016;-81
2023/01/04 14:22:56;;;;;;;22.43;15.30;;;;;;;;;;5099341;28;20080;-82
2023/01/04 14:25:31;;;;;;;21.58;14.43;;;;;;;;;;5105181;28;21431;-83
2023/01/04 14:28:16;;;;;;;22.77;15.75;;;;;;;;;;5102988;28;20027;-82
2023/01/04 14:30:42;;;;;;;24.25;14.98;;;;;;;;;;5115947;28;20024;-83
2023/01/04 14:33:14;;;;;;;23.25;15.43;;;;;;;;;;5104781;28;20109;-82
2023/01/04 14:35:40;;;;;;;25.33;16.47;;;;;;;;;;5096483;28;20474;-81
2023/01/04 14:38:11;;;;;;;28.15;17.38;;;;;;;;;;5114446;28;20601;-81
2023/01/04 14:40:38;;;;;;;25.52;17.98;;;;;;;;;;5108796;28;20024;-80
2023/01/04 14:43:24;;;;;;;28.77;19.85;;;;;;;;;;5099629;28;20047;-81
2023/01/04 14:45:50;;;;;;;31.20;19.80;;;;;;;;;;5110885;28;20059;-82
2023/01/04 14:48:16;;;;;;;31.23;19.48;;;;;;;;;;5113210;28;20050;-81
2023/01/04 14:50:42;;;;;;;29.17;19.90;;;;;;;;;;5105813;28;20026;-84
2023/01/04 14:53:08;;;;;;;30.63;18.90;;;;;;;;;;5106564;28;20068;-81
2023/01/04 14:55:34;;;;;;;28.13;17.77;;;;;;;;;;5097511;28;20482;-79
2023/01/04 14:58:00;;;;;;;31.48;19.05;;;;;;;;;;5095559;28;20076;-81
2023/01/04 15:00:26;;;;;;;28.67;17.88;;;;;;;;;;5100265;28;20020;-80
2023/01/04 15:02:52;;;;;;;27.77;18.50;;;;;;;;;;5100593;28;20038;-82
2023/01/04 15:05:18;;;;;;;29.33;18.02;;;;;;;;;;5096194;28;20538;-82
2023/01/04 15:07:45;;;;;;;28.48;19.27;;;;;;;;;;5110703;28;20023;-81
2023/01/04 15:10:25;;;;;;;32.47;21.52;;;;;;;;;;5102308;28;20029;-81
2023/01/04 15:12:51;;;;;;;36.65;22.45;;;;;;;;;;5113136;28;20024;-82
2023/01/04 15:15:18;;;;;;;32.72;20.58;;;;;;;;;;5101607;28;20230;-81